sensor_id;sensor_type;location;lat;lon;timestamp;P1;durP1;ratioP1;P2;durP2;ratioP2
73682;SDS011;72538;48.146;11.740;2023-12-07T00:01:14;13.90;;;12.50;;
73682;SDS011;72538;48.146;11.740;2023-12-07T00:03:40;14.23;;;12.77;;
73682;SDS011;72538;48.146;11.740;2023-12-07T00:06:06;13.47;;;12.03;;
73682;SDS011;72538;48.146;11.740;2023-12-07T00:08:32;14.23;;;12.43;;
73682;SDS011;72538;48.146;11.740;2023-12-07T00:10:57;14.60;;;13.03;;
73682;SDS011;72538;48.146;11.740;2023-12-07T00:13:23;14.07;;;12.13;;
73682;SDS011;72538;48.146;11.740;2023-12-07T00:15:49;14.27;;;12.43;;
73682;SDS011;72538;48.146;11.740;2023-12-07T00:18:14;15.40;;;13.80;;
73682;SDS011;72538;48.146;11.740;2023-12-07T00:20:40;16.27;;;13.27;;
73682;SDS011;72538;48.146;11.740;2023-12-07T00:23:06;14.17;;;12.63;;
73682;SDS011;72538;48.146;11.740;2023-12-07T00:25:32;14.73;;;13.13;;
73682;SDS011;72538;48.146;11.740;2023-12-07T00:27:57;14.77;;;13.20;;
73682;SDS011;72538;48.146;11.740;2023-12-07T00:30:23;13.73;;;12.33;;
73682;SDS011;72538;48.146;11.740;2023-12-07T00:32:49;15.53;;;13.83;;
73682;SDS011;72538;48.146;11.740;2023-12-07T00:35:14;15.20;;;13.60;;
73682;SDS011;72538;48.146;11.740;2023-12-07T00:37:41;15.87;;;13.67;;
73682;SDS011;72538;48.146;11.740;2023-12-07T00:40:07;15.03;;;13.43;;
73682;SDS011;72538;48.146;11.740;2023-12-07T00:42:33;16.80;;;14.33;;
73682;SDS011;72538;48.146;11.740;2023-12-07T00:45:00;15.10;;;12.83;;
73682;SDS011;72538;48.146;11.740;2023-12-07T00:47:26;18.67;;;14.57;;
73682;SDS011;72538;48.146;11.740;2023-12-07T00:49:53;16.27;;;13.43;;
73682;SDS011;72538;48.146;11.740;2023-12-07T00:52:19;16.50;;;14.57;;
73682;SDS011;72538;48.146;11.740;2023-12-07T00:54:44;18.67;;;14.87;;
73682;SDS011;72538;48.146;11.740;2023-12-07T00:57:10;15.60;;;13.73;;
73682;SDS011;72538;48.146;11.740;2023-12-07T00:59:36;19.87;;;14.80;;
73682;SDS011;72538;48.146;11.740;2023-12-07T01:02:03;18.60;;;15.23;;
73682;SDS011;72538;48.146;11.740;2023-12-07T01:04:30;19.40;;;15.67;;
73682;SDS011;72538;48.146;11.740;2023-12-07T01:06:56;18.20;;;15.60;;
73682;SDS011;72538;48.146;11.740;2023-12-07T01:09:22;18.90;;;15.20;;
73682;SDS011;72538;48.146;11.740;2023-12-07T01:11:49;19.53;;;15.87;;
73682;SDS011;72538;48.146;11.740;2023-12-07T01:14:15;19.90;;;17.23;;
73682;SDS011;72538;48.146;11.740;2023-12-07T01:16:42;19.97;;;15.93;;
73682;SDS011;72538;48.146;11.740;2023-12-07T01:19:08;19.60;;;16.03;;
73682;SDS011;72538;48.146;11.740;2023-12-07T01:21:34;17.90;;;15.97;;
73682;SDS011;72538;48.146;11.740;2023-12-07T01:24:00;20.13;;;16.07;;
73682;SDS011;72538;48.146;11.740;2023-12-07T01:26:26;18.77;;;15.83;;
73682;SDS011;72538;48.146;11.740;2023-12-07T01:28:51;19.73;;;16.30;;
73682;SDS011;72538;48.146;11.740;2023-12-07T01:31:17;22.37;;;17.23;;
73682;SDS011;72538;48.146;11.740;2023-12-07T01:33:43;24.40;;;18.00;;
73682;SDS011;72538;48.146;11.740;2023-12-07T01:36:10;25.93;;;17.53;;
73682;SDS011;72538;48.146;11.740;2023-12-07T01:38:36;25.00;;;19.40;;
73682;SDS011;72538;48.146;11.740;2023-12-07T01:41:01;26.93;;;19.90;;
73682;SDS011;72538;48.146;11.740;2023-12-07T01:43:27;26.20;;;19.53;;
73682;SDS011;72538;48.146;11.740;2023-12-07T01:45:54;26.30;;;19.33;;
73682;SDS011;72538;48.146;11.740;2023-12-07T01:48:22;27.93;;;21.50;;
73682;SDS011;72538;48.146;11.740;2023-12-07T01:50:50;29.20;;;20.97;;
73682;SDS011;72538;48.146;11.740;2023-12-07T01:53:16;28.30;;;20.60;;
73682;SDS011;72538;48.146;11.740;2023-12-07T01:55:43;26.47;;;19.77;;
73682;SDS011;72538;48.146;11.740;2023-12-07T01:58:09;27.03;;;21.40;;
73682;SDS011;72538;48.146;11.740;2023-12-07T02:00:35;29.17;;;21.30;;
73682;SDS011;72538;48.146;11.740;2023-12-07T02:03:03;26.60;;;19.57;;
73682;SDS011;72538;48.146;11.740;2023-12-07T02:05:30;23.87;;;19.03;;
73682;SDS011;72538;48.146;11.740;2023-12-07T02:07:57;27.13;;;20.63;;
73682;SDS011;72538;48.146;11.740;2023-12-07T02:10:24;28.73;;;21.47;;
73682;SDS011;72538;48.146;11.740;2023-12-07T02:12:50;30.67;;;21.70;;
73682;SDS011;72538;48.146;11.740;2023-12-07T02:15:20;28.20;;;20.40;;
73682;SDS011;72538;48.146;11.740;2023-12-07T02:20:37;26.97;;;20.83;;
73682;SDS011;72538;48.146;11.740;2023-12-07T02:23:14;26.97;;;21.17;;
73682;SDS011;72538;48.146;11.740;2023-12-07T02:28:19;24.80;;;19.90;;
73682;SDS011;72538;48.146;11.740;2023-12-07T02:30:45;24.83;;;20.20;;
73682;SDS011;72538;48.146;11.740;2023-12-07T02:33:11;23.00;;;18.97;;
73682;SDS011;72538;48.146;11.740;2023-12-07T02:35:38;24.70;;;19.37;;
73682;SDS011;72538;48.146;11.740;2023-12-07T02:38:06;24.50;;;18.50;;
73682;SDS011;72538;48.146;11.740;2023-12-07T02:40:33;21.77;;;17.73;;
73682;SDS011;72538;48.146;11.740;2023-12-07T02:43:00;24.63;;;19.17;;
73682;SDS011;72538;48.146;11.740;2023-12-07T02:45:28;32.37;;;21.27;;
73682;SDS011;72538;48.146;11.740;2023-12-07T02:47:56;26.17;;;20.10;;
73682;SDS011;72538;48.146;11.740;2023-12-07T02:50:23;23.07;;;18.80;;
73682;SDS011;72538;48.146;11.740;2023-12-07T02:52:49;22.17;;;17.57;;
73682;SDS011;72538;48.146;11.740;2023-12-07T02:55:15;23.47;;;17.87;;
73682;SDS011;72538;48.146;11.740;2023-12-07T02:57:41;22.63;;;18.90;;
73682;SDS011;72538;48.146;11.740;2023-12-07T03:00:07;27.20;;;19.23;;
73682;SDS011;72538;48.146;11.740;2023-12-07T03:02:35;23.80;;;18.43;;
73682;SDS011;72538;48.146;11.740;2023-12-07T03:05:01;25.13;;;18.57;;
73682;SDS011;72538;48.146;11.740;2023-12-07T03:07:27;23.73;;;18.73;;
73682;SDS011;72538;48.146;11.740;2023-12-07T03:09:53;24.80;;;18.73;;
73682;SDS011;72538;48.146;11.740;2023-12-07T03:12:19;22.67;;;17.93;;
73682;SDS011;72538;48.146;11.740;2023-12-07T03:14:44;23.53;;;18.53;;
73682;SDS011;72538;48.146;11.740;2023-12-07T03:17:10;26.40;;;19.00;;
73682;SDS011;72538;48.146;11.740;2023-12-07T03:19:39;23.23;;;18.30;;
73682;SDS011;72538;48.146;11.740;2023-12-07T03:22:06;26.17;;;20.60;;
73682;SDS011;72538;48.146;11.740;2023-12-07T03:24:32;30.20;;;21.83;;
73682;SDS011;72538;48.146;11.740;2023-12-07T03:26:59;26.77;;;19.63;;
73682;SDS011;72538;48.146;11.740;2023-12-07T03:29:25;28.57;;;21.70;;
73682;SDS011;72538;48.146;11.740;2023-12-07T03:31:51;28.10;;;21.13;;
73682;SDS011;72538;48.146;11.740;2023-12-07T03:34:17;28.67;;;20.53;;
73682;SDS011;72538;48.146;11.740;2023-12-07T03:36:46;27.77;;;20.73;;
73682;SDS011;72538;48.146;11.740;2023-12-07T03:39:15;28.47;;;21.23;;
73682;SDS011;72538;48.146;11.740;2023-12-07T03:41:44;27.70;;;20.37;;
73682;SDS011;72538;48.146;11.740;2023-12-07T03:44:10;28.93;;;20.57;;
73682;SDS011;72538;48.146;11.740;2023-12-07T03:46:36;30.27;;;21.47;;
73682;SDS011;72538;48.146;11.740;2023-12-07T03:49:02;30.00;;;20.10;;
73682;SDS011;72538;48.146;11.740;2023-12-07T03:51:28;30.03;;;20.67;;
73682;SDS011;72538;48.146;11.740;2023-12-07T03:53:54;32.80;;;22.03;;
73682;SDS011;72538;48.146;11.740;2023-12-07T03:56:24;27.07;;;19.50;;
73682;SDS011;72538;48.146;11.740;2023-12-07T03:58:51;27.90;;;19.63;;
73682;SDS011;72538;48.146;11.740;2023-12-07T04:01:17;25.17;;;19.13;;
73682;SDS011;72538;48.146;11.740;2023-12-07T04:03:52;23.07;;;18.30;;
73682;SDS011;72538;48.146;11.740;2023-12-07T04:06:18;27.53;;;19.37;;
73682;SDS011;72538;48.146;11.740;2023-12-07T04:08:44;26.60;;;18.83;;
73682;SDS011;72538;48.146;11.740;2023-12-07T04:11:10;26.63;;;20.53;;
73682;SDS011;72538;48.146;11.740;2023-12-07T04:13:36;34.33;;;24.13;;
73682;SDS011;72538;48.146;11.740;2023-12-07T04:16:02;29.70;;;21.70;;
73682;SDS011;72538;48.146;11.740;2023-12-07T04:18:29;25.33;;;19.17;;
73682;SDS011;72538;48.146;11.740;2023-12-07T04:20:55;24.20;;;18.73;;
73682;SDS011;72538;48.146;11.740;2023-12-07T04:23:20;24.90;;;18.17;;
73682;SDS011;72538;48.146;11.740;2023-12-07T04:25:46;26.77;;;18.43;;
73682;SDS011;72538;48.146;11.740;2023-12-07T04:28:12;26.53;;;18.20;;
73682;SDS011;72538;48.146;11.740;2023-12-07T04:30:38;23.90;;;18.37;;
73682;SDS011;72538;48.146;11.740;2023-12-07T04:33:03;22.00;;;17.47;;
73682;SDS011;72538;48.146;11.740;2023-12-07T04:35:30;21.43;;;16.93;;
73682;SDS011;72538;48.146;11.740;2023-12-07T04:37:56;24.10;;;17.40;;
73682;SDS011;72538;48.146;11.740;2023-12-07T04:40:22;21.53;;;17.30;;
73682;SDS011;72538;48.146;11.740;2023-12-07T04:42:47;18.83;;;15.03;;
73682;SDS011;72538;48.146;11.740;2023-12-07T04:45:13;22.07;;;16.63;;
73682;SDS011;72538;48.146;11.740;2023-12-07T04:47:39;20.03;;;15.63;;
73682;SDS011;72538;48.146;11.740;2023-12-07T04:50:05;23.93;;;16.13;;
73682;SDS011;72538;48.146;11.740;2023-12-07T04:52:31;21.33;;;16.43;;
73682;SDS011;72538;48.146;11.740;2023-12-07T04:54:57;20.03;;;15.87;;
73682;SDS011;72538;48.146;11.740;2023-12-07T04:57:22;21.23;;;15.87;;
73682;SDS011;72538;48.146;11.740;2023-12-07T04:59:48;19.23;;;14.87;;
73682;SDS011;72538;48.146;11.740;2023-12-07T05:02:14;19.27;;;15.70;;
73682;SDS011;72538;48.146;11.740;2023-12-07T05:04:40;22.67;;;15.67;;
73682;SDS011;72538;48.146;11.740;2023-12-07T05:07:06;19.50;;;14.57;;
73682;SDS011;72538;48.146;11.740;2023-12-07T05:09:32;19.43;;;14.90;;
73682;SDS011;72538;48.146;11.740;2023-12-07T05:11:58;18.37;;;13.50;;
73682;SDS011;72538;48.146;11.740;2023-12-07T05:14:23;18.90;;;14.87;;
73682;SDS011;72538;48.146;11.740;2023-12-07T05:16:49;18.80;;;14.80;;
73682;SDS011;72538;48.146;11.740;2023-12-07T05:19:17;22.90;;;14.67;;
73682;SDS011;72538;48.146;11.740;2023-12-07T05:21:42;18.60;;;14.37;;
73682;SDS011;72538;48.146;11.740;2023-12-07T05:24:08;20.50;;;14.87;;
73682;SDS011;72538;48.146;11.740;2023-12-07T05:26:34;18.73;;;14.40;;
73682;SDS011;72538;48.146;11.740;2023-12-07T05:28:59;19.70;;;14.63;;
73682;SDS011;72538;48.146;11.740;2023-12-07T05:31:25;23.50;;;15.77;;
73682;SDS011;72538;48.146;11.740;2023-12-07T05:33:52;21.60;;;15.17;;
73682;SDS011;72538;48.146;11.740;2023-12-07T05:36:17;19.10;;;13.83;;
73682;SDS011;72538;48.146;11.740;2023-12-07T05:38:43;20.33;;;15.23;;
73682;SDS011;72538;48.146;11.740;2023-12-07T05:41:09;21.07;;;15.77;;
73682;SDS011;72538;48.146;11.740;2023-12-07T05:43:34;20.33;;;14.73;;
73682;SDS011;72538;48.146;11.740;2023-12-07T05:46:00;20.57;;;14.77;;
73682;SDS011;72538;48.146;11.740;2023-12-07T05:48:26;19.27;;;14.20;;
73682;SDS011;72538;48.146;11.740;2023-12-07T05:50:52;18.00;;;13.23;;
73682;SDS011;72538;48.146;11.740;2023-12-07T05:53:17;19.37;;;14.73;;
73682;SDS011;72538;48.146;11.740;2023-12-07T05:55:43;19.53;;;14.47;;
73682;SDS011;72538;48.146;11.740;2023-12-07T05:58:09;20.07;;;14.07;;
73682;SDS011;72538;48.146;11.740;2023-12-07T06:00:34;19.37;;;14.27;;
73682;SDS011;72538;48.146;11.740;2023-12-07T06:03:00;19.47;;;14.93;;
73682;SDS011;72538;48.146;11.740;2023-12-07T06:05:28;18.40;;;13.90;;
73682;SDS011;72538;48.146;11.740;2023-12-07T06:07:53;21.93;;;14.57;;
73682;SDS011;72538;48.146;11.740;2023-12-07T06:10:20;18.93;;;14.33;;
73682;SDS011;72538;48.146;11.740;2023-12-07T06:12:46;21.43;;;15.83;;
73682;SDS011;72538;48.146;11.740;2023-12-07T06:15:12;18.00;;;13.97;;
73682;SDS011;72538;48.146;11.740;2023-12-07T06:17:37;22.40;;;14.90;;
73682;SDS011;72538;48.146;11.740;2023-12-07T06:20:05;20.23;;;14.63;;
73682;SDS011;72538;48.146;11.740;2023-12-07T06:22:31;17.83;;;14.63;;
73682;SDS011;72538;48.146;11.740;2023-12-07T06:24:57;22.00;;;15.47;;
73682;SDS011;72538;48.146;11.740;2023-12-07T06:27:23;19.77;;;14.10;;
73682;SDS011;72538;48.146;11.740;2023-12-07T06:29:49;23.23;;;16.67;;
73682;SDS011;72538;48.146;11.740;2023-12-07T06:32:15;20.23;;;15.53;;
73682;SDS011;72538;48.146;11.740;2023-12-07T06:34:41;18.50;;;14.77;;
73682;SDS011;72538;48.146;11.740;2023-12-07T06:37:07;20.00;;;14.87;;
73682;SDS011;72538;48.146;11.740;2023-12-07T06:39:36;21.67;;;15.90;;
73682;SDS011;72538;48.146;11.740;2023-12-07T06:42:02;24.37;;;15.80;;
73682;SDS011;72538;48.146;11.740;2023-12-07T06:44:28;20.13;;;15.23;;
73682;SDS011;72538;48.146;11.740;2023-12-07T06:46:54;22.57;;;15.37;;
73682;SDS011;72538;48.146;11.740;2023-12-07T06:49:20;22.47;;;15.23;;
73682;SDS011;72538;48.146;11.740;2023-12-07T06:51:45;23.90;;;15.37;;
73682;SDS011;72538;48.146;11.740;2023-12-07T06:54:11;24.70;;;16.73;;
73682;SDS011;72538;48.146;11.740;2023-12-07T06:56:37;23.17;;;16.87;;
73682;SDS011;72538;48.146;11.740;2023-12-07T06:59:03;27.67;;;20.50;;
73682;SDS011;72538;48.146;11.740;2023-12-07T07:01:29;23.27;;;16.63;;
73682;SDS011;72538;48.146;11.740;2023-12-07T07:03:54;21.73;;;16.27;;
73682;SDS011;72538;48.146;11.740;2023-12-07T07:06:21;24.23;;;16.07;;
73682;SDS011;72538;48.146;11.740;2023-12-07T07:08:47;22.67;;;15.47;;
73682;SDS011;72538;48.146;11.740;2023-12-07T07:11:14;24.77;;;17.83;;
73682;SDS011;72538;48.146;11.740;2023-12-07T07:13:40;25.93;;;16.43;;
73682;SDS011;72538;48.146;11.740;2023-12-07T07:16:07;22.77;;;16.27;;
73682;SDS011;72538;48.146;11.740;2023-12-07T07:18:33;19.47;;;15.00;;
73682;SDS011;72538;48.146;11.740;2023-12-07T07:21:00;21.40;;;15.37;;
73682;SDS011;72538;48.146;11.740;2023-12-07T07:23:26;24.27;;;16.23;;
73682;SDS011;72538;48.146;11.740;2023-12-07T07:25:52;22.33;;;15.33;;
73682;SDS011;72538;48.146;11.740;2023-12-07T07:28:18;24.40;;;14.83;;
73682;SDS011;72538;48.146;11.740;2023-12-07T07:30:43;21.70;;;16.13;;
73682;SDS011;72538;48.146;11.740;2023-12-07T07:33:09;24.03;;;15.80;;
73682;SDS011;72538;48.146;11.740;2023-12-07T07:35:35;26.93;;;16.00;;
73682;SDS011;72538;48.146;11.740;2023-12-07T07:38:00;25.43;;;15.90;;
73682;SDS011;72538;48.146;11.740;2023-12-07T07:40:26;26.67;;;16.80;;
73682;SDS011;72538;48.146;11.740;2023-12-07T07:42:52;19.77;;;15.93;;
73682;SDS011;72538;48.146;11.740;2023-12-07T07:45:18;18.17;;;15.50;;
73682;SDS011;72538;48.146;11.740;2023-12-07T07:47:44;25.43;;;16.97;;
73682;SDS011;72538;48.146;11.740;2023-12-07T07:50:10;21.53;;;16.47;;
73682;SDS011;72538;48.146;11.740;2023-12-07T07:52:36;22.03;;;16.43;;
73682;SDS011;72538;48.146;11.740;2023-12-07T07:55:03;20.77;;;15.67;;
73682;SDS011;72538;48.146;11.740;2023-12-07T07:57:30;21.43;;;15.60;;
73682;SDS011;72538;48.146;11.740;2023-12-07T07:59:56;23.40;;;16.43;;
73682;SDS011;72538;48.146;11.740;2023-12-07T08:02:23;19.93;;;15.47;;
73682;SDS011;72538;48.146;11.740;2023-12-07T08:04:49;20.03;;;16.33;;
73682;SDS011;72538;48.146;11.740;2023-12-07T08:07:17;19.90;;;15.90;;
73682;SDS011;72538;48.146;11.740;2023-12-07T08:09:43;14.20;;;12.47;;
73682;SDS011;72538;48.146;11.740;2023-12-07T08:12:08;16.10;;;13.17;;
73682;SDS011;72538;48.146;11.740;2023-12-07T08:14:35;13.40;;;12.00;;
73682;SDS011;72538;48.146;11.740;2023-12-07T08:17:01;14.37;;;12.77;;
73682;SDS011;72538;48.146;11.740;2023-12-07T08:19:28;13.03;;;11.73;;
73682;SDS011;72538;48.146;11.740;2023-12-07T08:21:54;12.40;;;11.20;;
73682;SDS011;72538;48.146;11.740;2023-12-07T08:24:20;13.13;;;11.90;;
73682;SDS011;72538;48.146;11.740;2023-12-07T08:26:45;14.93;;;13.63;;
73682;SDS011;72538;48.146;11.740;2023-12-07T08:29:11;16.97;;;15.57;;
73682;SDS011;72538;48.146;11.740;2023-12-07T08:31:39;17.00;;;15.50;;
73682;SDS011;72538;48.146;11.740;2023-12-07T08:34:06;16.23;;;14.93;;
73682;SDS011;72538;48.146;11.740;2023-12-07T08:36:31;15.67;;;14.37;;
73682;SDS011;72538;48.146;11.740;2023-12-07T08:38:57;16.20;;;14.90;;
73682;SDS011;72538;48.146;11.740;2023-12-07T08:41:23;15.37;;;14.17;;
73682;SDS011;72538;48.146;11.740;2023-12-07T08:43:48;15.03;;;13.83;;
73682;SDS011;72538;48.146;11.740;2023-12-07T08:46:14;27.07;;;25.40;;
73682;SDS011;72538;48.146;11.740;2023-12-07T08:48:41;28.73;;;27.10;;
73682;SDS011;72538;48.146;11.740;2023-12-07T08:51:07;14.17;;;12.97;;
73682;SDS011;72538;48.146;11.740;2023-12-07T08:53:38;26.57;;;24.90;;
73682;SDS011;72538;48.146;11.740;2023-12-07T08:56:01;14.20;;;12.77;;
73682;SDS011;72538;48.146;11.740;2023-12-07T08:58:27;10.80;;;9.80;;
73682;SDS011;72538;48.146;11.740;2023-12-07T09:00:53;14.63;;;13.43;;
73682;SDS011;72538;48.146;11.740;2023-12-07T09:03:19;14.40;;;13.30;;
73682;SDS011;72538;48.146;11.740;2023-12-07T09:05:44;9.73;;;8.93;;
73682;SDS011;72538;48.146;11.740;2023-12-07T09:08:10;12.00;;;10.80;;
73682;SDS011;72538;48.146;11.740;2023-12-07T09:10:36;10.60;;;9.70;;
73682;SDS011;72538;48.146;11.740;2023-12-07T09:13:02;10.03;;;9.20;;
73682;SDS011;72538;48.146;11.740;2023-12-07T09:15:28;12.13;;;11.13;;
73682;SDS011;72538;48.146;11.740;2023-12-07T09:17:54;10.30;;;9.20;;
73682;SDS011;72538;48.146;11.740;2023-12-07T09:20:19;11.20;;;10.30;;
73682;SDS011;72538;48.146;11.740;2023-12-07T09:22:45;10.73;;;9.83;;
73682;SDS011;72538;48.146;11.740;2023-12-07T09:25:15;11.60;;;10.70;;
73682;SDS011;72538;48.146;11.740;2023-12-07T09:27:42;10.53;;;9.73;;
73682;SDS011;72538;48.146;11.740;2023-12-07T09:30:08;14.23;;;12.75;;
73682;SDS011;72538;48.146;11.740;2023-12-07T09:32:36;15.70;;;14.03;;
73682;SDS011;72538;48.146;11.740;2023-12-07T09:35:04;14.47;;;13.03;;
73682;SDS011;72538;48.146;11.740;2023-12-07T09:37:32;11.43;;;10.45;;
73682;SDS011;72538;48.146;11.740;2023-12-07T09:39:59;10.32;;;9.43;;
73682;SDS011;72538;48.146;11.740;2023-12-07T09:42:26;11.90;;;10.90;;
73682;SDS011;72538;48.146;11.740;2023-12-07T09:44:52;11.88;;;10.20;;
73682;SDS011;72538;48.146;11.740;2023-12-07T09:47:19;14.75;;;12.13;;
73682;SDS011;72538;48.146;11.740;2023-12-07T09:49:45;34.92;;;24.40;;
73682;SDS011;72538;48.146;11.740;2023-12-07T09:52:11;13.93;;;12.55;;
73682;SDS011;72538;48.146;11.740;2023-12-07T09:54:42;9.48;;;8.13;;
73682;SDS011;72538;48.146;11.740;2023-12-07T09:57:09;9.05;;;8.28;;
73682;SDS011;72538;48.146;11.740;2023-12-07T09:59:35;8.73;;;7.83;;
73682;SDS011;72538;48.146;11.740;2023-12-07T10:02:02;8.13;;;7.42;;
73682;SDS011;72538;48.146;11.740;2023-12-07T10:04:28;6.95;;;6.35;;
73682;SDS011;72538;48.146;11.740;2023-12-07T10:06:53;6.58;;;5.97;;
73682;SDS011;72538;48.146;11.740;2023-12-07T10:09:19;5.92;;;5.33;;
73682;SDS011;72538;48.146;11.740;2023-12-07T10:11:47;5.72;;;5.22;;
73682;SDS011;72538;48.146;11.740;2023-12-07T10:14:13;6.60;;;6.10;;
73682;SDS011;72538;48.146;11.740;2023-12-07T10:16:52;6.30;;;5.70;;
73682;SDS011;72538;48.146;11.740;2023-12-07T10:19:21;8.33;;;6.28;;
73682;SDS011;72538;48.146;11.740;2023-12-07T10:21:51;6.12;;;5.62;;
73682;SDS011;72538;48.146;11.740;2023-12-07T10:24:17;5.92;;;5.40;;
73682;SDS011;72538;48.146;11.740;2023-12-07T10:26:48;5.58;;;5.12;;
73682;SDS011;72538;48.146;11.740;2023-12-07T10:29:14;5.42;;;4.92;;
73682;SDS011;72538;48.146;11.740;2023-12-07T10:31:45;5.70;;;5.10;;
73682;SDS011;72538;48.146;11.740;2023-12-07T10:34:12;4.97;;;4.58;;
73682;SDS011;72538;48.146;11.740;2023-12-07T10:36:40;5.87;;;5.37;;
73682;SDS011;72538;48.146;11.740;2023-12-07T10:39:06;6.03;;;5.53;;
73682;SDS011;72538;48.146;11.740;2023-12-07T10:41:33;6.72;;;6.10;;
73682;SDS011;72538;48.146;11.740;2023-12-07T10:44:01;4.85;;;4.45;;
73682;SDS011;72538;48.146;11.740;2023-12-07T10:46:27;5.08;;;4.67;;
73682;SDS011;72538;48.146;11.740;2023-12-07T10:48:55;4.75;;;4.35;;
73682;SDS011;72538;48.146;11.740;2023-12-07T10:51:31;4.75;;;4.35;;
73682;SDS011;72538;48.146;11.740;2023-12-07T10:53:59;4.30;;;3.90;;
73682;SDS011;72538;48.146;11.740;2023-12-07T10:56:29;5.03;;;4.53;;
73682;SDS011;72538;48.146;11.740;2023-12-07T10:59:07;5.28;;;4.78;;
73682;SDS011;72538;48.146;11.740;2023-12-07T11:01:42;5.70;;;5.20;;
73682;SDS011;72538;48.146;11.740;2023-12-07T11:04:11;5.85;;;5.30;;
73682;SDS011;72538;48.146;11.740;2023-12-07T11:06:44;5.97;;;5.45;;
73682;SDS011;72538;48.146;11.740;2023-12-07T11:09:13;5.45;;;4.95;;
73682;SDS011;72538;48.146;11.740;2023-12-07T11:14:11;5.20;;;4.80;;
73682;SDS011;72538;48.146;11.740;2023-12-07T11:16:40;4.60;;;4.30;;
73682;SDS011;72538;48.146;11.740;2023-12-07T11:19:43;12.53;;;9.83;;
73682;SDS011;72538;48.146;11.740;2023-12-07T11:22:01;4.50;;;4.10;;
73682;SDS011;72538;48.146;11.740;2023-12-07T11:24:28;5.72;;;4.70;;
73682;SDS011;72538;48.146;11.740;2023-12-07T11:26:58;4.37;;;4.08;;
73682;SDS011;72538;48.146;11.740;2023-12-07T11:29:23;5.15;;;4.65;;
73682;SDS011;72538;48.146;11.740;2023-12-07T11:31:50;6.30;;;5.30;;
73682;SDS011;72538;48.146;11.740;2023-12-07T11:34:59;4.37;;;3.95;;
73682;SDS011;72538;48.146;11.740;2023-12-07T11:37:01;4.83;;;4.25;;
73682;SDS011;72538;48.146;11.740;2023-12-07T11:39:28;5.80;;;4.50;;
73682;SDS011;72538;48.146;11.740;2023-12-07T11:41:54;4.40;;;4.00;;
73682;SDS011;72538;48.146;11.740;2023-12-07T11:44:24;5.08;;;3.62;;
73682;SDS011;72538;48.146;11.740;2023-12-07T11:46:51;3.70;;;3.42;;
73682;SDS011;72538;48.146;11.740;2023-12-07T11:49:17;3.50;;;3.20;;
73682;SDS011;72538;48.146;11.740;2023-12-07T11:51:43;3.72;;;3.37;;
73682;SDS011;72538;48.146;11.740;2023-12-07T11:54:09;3.40;;;3.10;;
73682;SDS011;72538;48.146;11.740;2023-12-07T11:56:36;3.00;;;2.80;;
73682;SDS011;72538;48.146;11.740;2023-12-07T11:59:03;3.60;;;3.30;;
73682;SDS011;72538;48.146;11.740;2023-12-07T12:01:29;4.70;;;2.95;;
73682;SDS011;72538;48.146;11.740;2023-12-07T12:03:55;3.37;;;3.00;;
73682;SDS011;72538;48.146;11.740;2023-12-07T12:06:23;5.28;;;3.62;;
73682;SDS011;72538;48.146;11.740;2023-12-07T12:08:51;5.28;;;4.20;;
73682;SDS011;72538;48.146;11.740;2023-12-07T12:11:18;5.20;;;3.47;;
73682;SDS011;72538;48.146;11.740;2023-12-07T12:13:44;8.33;;;4.00;;
73682;SDS011;72538;48.146;11.740;2023-12-07T12:16:12;4.62;;;3.35;;
73682;SDS011;72538;48.146;11.740;2023-12-07T12:18:38;3.40;;;3.15;;
73682;SDS011;72538;48.146;11.740;2023-12-07T12:21:06;7.80;;;2.98;;
73682;SDS011;72538;48.146;11.740;2023-12-07T12:23:34;6.00;;;2.67;;
73682;SDS011;72538;48.146;11.740;2023-12-07T12:26:00;5.67;;;2.75;;
73682;SDS011;72538;48.146;11.740;2023-12-07T12:28:27;5.92;;;2.70;;
73682;SDS011;72538;48.146;11.740;2023-12-07T12:30:54;3.65;;;2.80;;
73682;SDS011;72538;48.146;11.740;2023-12-07T12:33:20;3.22;;;2.77;;
73682;SDS011;72538;48.146;11.740;2023-12-07T12:35:46;3.30;;;2.97;;
73682;SDS011;72538;48.146;11.740;2023-12-07T12:38:12;3.67;;;3.23;;
73682;SDS011;72538;48.146;11.740;2023-12-07T12:40:38;3.97;;;3.27;;
73682;SDS011;72538;48.146;11.740;2023-12-07T12:43:06;5.53;;;4.07;;
73682;SDS011;72538;48.146;11.740;2023-12-07T12:45:32;6.90;;;3.43;;
73682;SDS011;72538;48.146;11.740;2023-12-07T12:47:59;4.37;;;3.20;;
73682;SDS011;72538;48.146;11.740;2023-12-07T12:50:35;3.70;;;3.37;;
73682;SDS011;72538;48.146;11.740;2023-12-07T12:53:10;4.70;;;3.30;;
73682;SDS011;72538;48.146;11.740;2023-12-07T12:55:35;4.47;;;3.27;;
73682;SDS011;72538;48.146;11.740;2023-12-07T12:58:03;3.97;;;3.60;;
73682;SDS011;72538;48.146;11.740;2023-12-07T13:00:32;5.13;;;3.93;;
73682;SDS011;72538;48.146;11.740;2023-12-07T13:03:05;3.83;;;3.43;;
73682;SDS011;72538;48.146;11.740;2023-12-07T13:05:31;4.63;;;3.53;;
73682;SDS011;72538;48.146;11.740;2023-12-07T13:07:58;3.97;;;2.93;;
73682;SDS011;72538;48.146;11.740;2023-12-07T13:10:25;3.60;;;3.30;;
73682;SDS011;72538;48.146;11.740;2023-12-07T13:12:51;7.93;;;5.10;;
73682;SDS011;72538;48.146;11.740;2023-12-07T13:15:17;7.30;;;4.97;;
73682;SDS011;72538;48.146;11.740;2023-12-07T13:17:43;6.90;;;6.20;;
73682;SDS011;72538;48.146;11.740;2023-12-07T13:20:09;9.90;;;6.67;;
73682;SDS011;72538;48.146;11.740;2023-12-07T13:22:38;6.53;;;5.93;;
73682;SDS011;72538;48.146;11.740;2023-12-07T13:25:05;7.03;;;6.33;;
73682;SDS011;72538;48.146;11.740;2023-12-07T13:27:36;7.30;;;5.60;;
73682;SDS011;72538;48.146;11.740;2023-12-07T13:30:00;9.10;;;6.10;;
73682;SDS011;72538;48.146;11.740;2023-12-07T13:32:26;7.07;;;6.37;;
73682;SDS011;72538;48.146;11.740;2023-12-07T13:34:52;7.97;;;6.70;;
73682;SDS011;72538;48.146;11.740;2023-12-07T13:37:19;7.30;;;6.20;;
73682;SDS011;72538;48.146;11.740;2023-12-07T13:39:46;7.20;;;6.17;;
73682;SDS011;72538;48.146;11.740;2023-12-07T13:42:14;8.40;;;7.27;;
73682;SDS011;72538;48.146;11.740;2023-12-07T13:44:40;8.20;;;7.40;;
73682;SDS011;72538;48.146;11.740;2023-12-07T13:47:06;8.53;;;6.70;;
73682;SDS011;72538;48.146;11.740;2023-12-07T13:49:32;9.13;;;7.40;;
73682;SDS011;72538;48.146;11.740;2023-12-07T13:51:58;9.73;;;7.30;;
73682;SDS011;72538;48.146;11.740;2023-12-07T13:54:25;10.10;;;7.73;;
73682;SDS011;72538;48.146;11.740;2023-12-07T13:56:51;11.20;;;8.37;;
73682;SDS011;72538;48.146;11.740;2023-12-07T13:59:18;13.87;;;8.03;;
73682;SDS011;72538;48.146;11.740;2023-12-07T14:01:44;7.23;;;6.53;;
73682;SDS011;72538;48.146;11.740;2023-12-07T14:04:10;8.67;;;7.70;;
73682;SDS011;72538;48.146;11.740;2023-12-07T14:06:35;11.23;;;6.67;;
73682;SDS011;72538;48.146;11.740;2023-12-07T14:09:01;9.27;;;6.33;;
73682;SDS011;72538;48.146;11.740;2023-12-07T14:11:28;8.37;;;7.33;;
73682;SDS011;72538;48.146;11.740;2023-12-07T14:13:54;9.40;;;6.13;;
73682;SDS011;72538;48.146;11.740;2023-12-07T14:16:20;7.33;;;5.20;;
73682;SDS011;72538;48.146;11.740;2023-12-07T14:18:46;7.27;;;4.90;;
73682;SDS011;72538;48.146;11.740;2023-12-07T14:21:12;10.20;;;5.50;;